Time,TemperatureF,DewpointF,PressureIn,WindDirection,WindDirectionDegrees,WindSpeedMPH,WindSpeedGustMPH,Humidity,HourlyPrecipIn,Conditions,Clouds,dailyrainin,SoftwareType,DateUTC
2013-06-11 00:03:00,70.4,67.3,29.85,SW,230,0.0,0.0,90,0.00,,,0.00,Wunderground v.1.15,2013-06-11 05:03:00,
2013-06-11 00:08:00,70.2,67.4,29.86,SW,231,0.0,0.0,91,0.00,,,0.00,Wunderground v.1.15,2013-06-11 05:08:00,
2013-06-11 00:14:00,70.2,67.8,29.86,SW,231,0.0,0.0,92,0.00,,,0.00,Wunderground v.1.15,2013-06-11 05:14:00,
2013-06-11 00:19:00,70.1,67.3,29.86,SW,231,0.0,0.0,91,0.00,,,0.00,Wunderground v.1.15,2013-06-11 05:19:00,
2013-06-11 00:24:00,69.9,67.2,29.86,SW,231,0.0,0.0,91,0.00,,,0.00,Wunderground v.1.15,2013-06-11 05:24:00,
2013-06-11 00:29:00,69.7,67.3,29.86,SW,231,0.0,0.0,92,0.00,,,0.00,Wunderground v.1.15,2013-06-11 05:29:00,
2013-06-11 00:34:00,69.5,67.1,29.86,SW,231,0.0,0.0,92,0.00,,,0.00,Wunderground v.1.15,2013-06-11 05:34:00,
2013-06-11 00:39:00,69.4,67.3,29.86,SW,231,0.0,0.0,93,0.00,,,0.00,Wunderground v.1.15,2013-06-11 05:39:00,
2013-06-11 00:44:00,69.4,67.3,29.86,SW,231,0.0,0.0,93,0.00,,,0.00,Wunderground v.1.15,2013-06-11 05:44:00,
2013-06-11 00:50:00,69.4,67.3,29.87,SW,231,0.0,1.0,93,0.00,,,0.00,Wunderground v.1.15,2013-06-11 05:50:00,
2013-06-11 00:55:00,69.3,67.2,29.87,SW,231,0.0,0.0,93,0.00,,,0.00,Wunderground v.1.15,2013-06-11 05:55:00,
2013-06-11 01:00:00,69.0,66.9,29.87,SW,231,0.0,0.0,93,0.00,,,0.00,Wunderground v.1.15,2013-06-11 06:00:00,
2013-06-11 01:06:00,68.8,67.0,29.87,SW,231,0.0,0.0,94,0.00,,,0.00,Wunderground v.1.15,2013-06-11 06:06:00,
2013-06-11 01:11:00,68.8,67.0,29.87,SW,231,0.0,0.0,94,0.00,,,0.00,Wunderground v.1.15,2013-06-11 06:11:00,
2013-06-11 01:16:00,68.6,66.8,29.86,SW,231,0.0,0.0,94,0.00,,,0.00,Wunderground v.1.15,2013-06-11 06:16:00,
2013-06-11 01:21:00,68.4,66.6,29.87,SW,231,0.0,0.0,94,0.00,,,0.00,Wunderground v.1.15,2013-06-11 06:21:00,
2013-06-11 01:26:00,68.3,66.5,29.87,SW,231,0.0,0.0,94,0.00,,,0.00,Wunderground v.1.15,2013-06-11 06:26:00,
2013-06-11 01:32:00,68.2,66.4,29.87,SW,231,0.0,0.0,94,0.00,,,0.00,Wunderground v.1.15,2013-06-11 06:32:00,
2013-06-11 01:37:00,68.1,66.3,29.87,SW,231,0.0,0.0,94,0.00,,,0.00,Wunderground v.1.15,2013-06-11 06:37:00,
2013-06-11 01:42:00,67.9,66.1,29.87,SW,231,0.0,0.0,94,0.00,,,0.00,Wunderground v.1.15,2013-06-11 06:42:00,
2013-06-11 01:47:00,67.9,66.4,29.87,SW,231,0.0,0.0,95,0.00,,,0.00,Wunderground v.1.15,2013-06-11 06:47:00,
2013-06-11 01:52:00,67.7,65.9,29.87,SW,231,0.0,0.0,94,0.00,,,0.00,Wunderground v.1.15,2013-06-11 06:52:00,
2013-06-11 01:58:00,67.6,66.1,29.87,SW,231,0.0,0.0,95,0.00,,,0.00,Wunderground v.1.15,2013-06-11 06:58:00,
2013-06-11 02:03:00,67.5,66.0,29.87,SW,231,0.0,0.0,95,0.00,,,0.00,Wunderground v.1.15,2013-06-11 07:03:00,
2013-06-11 02:08:00,67.4,65.9,29.86,SW,231,0.0,0.0,95,0.00,,,0.00,Wunderground v.1.15,2013-06-11 07:08:00,
2013-06-11 02:13:00,67.4,65.9,29.86,SW,231,0.0,0.0,95,0.00,,,0.00,Wunderground v.1.15,2013-06-11 07:13:00,
2013-06-11 02:18:00,67.4,65.9,29.86,SW,231,0.0,0.0,95,0.00,,,0.00,Wunderground v.1.15,2013-06-11 07:18:00,
2013-06-11 02:23:00,67.3,65.8,29.86,SW,231,0.0,0.0,95,0.00,,,0.00,Wunderground v.1.15,2013-06-11 07:23:00,
2013-06-11 02:28:00,67.2,65.7,29.86,SW,231,0.0,0.0,95,0.00,,,0.00,Wunderground v.1.15,2013-06-11 07:28:00,
2013-06-11 02:33:00,67.0,65.5,29.87,SW,231,0.0,0.0,95,0.00,,,0.00,Wunderground v.1.15,2013-06-11 07:33:00,
2013-06-11 02:38:00,66.8,65.3,29.86,SW,231,0.0,0.0,95,0.00,,,0.00,Wunderground v.1.15,2013-06-11 07:38:00,
2013-06-11 02:43:00,66.6,65.1,29.87,SW,231,0.0,0.0,95,0.00,,,0.00,Wunderground v.1.15,2013-06-11 07:43:00,
2013-06-11 02:48:00,66.4,64.9,29.87,SW,231,0.0,0.0,95,0.00,,,0.00,Wunderground v.1.15,2013-06-11 07:48:00,
2013-06-11 02:53:00,66.2,64.7,29.87,SW,231,0.0,0.0,95,0.00,,,0.00,Wunderground v.1.15,2013-06-11 07:53:00,
2013-06-11 02:58:00,66.3,64.8,29.86,SW,231,0.0,0.0,95,0.00,,,0.00,Wunderground v.1.15,2013-06-11 07:58:00,
2013-06-11 03:03:00,66.2,65.0,29.86,SW,231,0.0,0.0,96,0.00,,,0.00,Wunderground v.1.15,2013-06-11 08:03:00,
2013-06-11 03:08:00,66.1,64.6,29.86,SW,231,0.0,0.0,95,0.00,,,0.00,Wunderground v.1.15,2013-06-11 08:08:00,
2013-06-11 03:13:00,65.9,64.4,29.86,SW,231,0.0,0.0,95,0.00,,,0.00,Wunderground v.1.15,2013-06-11 08:13:00,
2013-06-11 03:18:00,65.6,64.1,29.86,SW,231,0.0,0.0,95,0.00,,,0.00,Wunderground v.1.15,2013-06-11 08:18:00,
2013-06-11 03:23:00,65.5,64.3,29.86,SW,230,0.0,0.0,96,0.00,,,0.00,Wunderground v.1.15,2013-06-11 08:23:00,
2013-06-11 03:28:00,65.8,64.6,29.86,SW,231,0.0,0.0,96,0.00,,,0.00,Wunderground v.1.15,2013-06-11 08:28:00,
2013-06-11 03:33:00,65.8,64.6,29.86,SW,231,0.0,0.0,96,0.00,,,0.00,Wunderground v.1.15,2013-06-11 08:33:00,
2013-06-11 03:38:00,65.7,64.5,29.86,SW,231,0.0,0.0,96,0.00,,,0.00,Wunderground v.1.15,2013-06-11 08:38:00,
2013-06-11 03:43:00,65.8,64.6,29.86,SW,231,0.0,0.0,96,0.00,,,0.00,Wunderground v.1.15,2013-06-11 08:43:00,
2013-06-11 03:48:00,65.8,64.6,29.86,SW,231,0.0,0.0,96,0.00,,,0.00,Wunderground v.1.15,2013-06-11 08:48:00,
2013-06-11 03:53:00,65.6,64.4,29.86,SW,230,0.0,0.0,96,0.00,,,0.00,Wunderground v.1.15,2013-06-11 08:53:00,
2013-06-11 03:58:00,65.5,64.3,29.86,SW,231,0.0,0.0,96,0.00,,,0.00,Wunderground v.1.15,2013-06-11 08:58:00,
2013-06-11 04:03:00,65.5,64.3,29.86,SW,231,0.0,0.0,96,0.00,,,0.00,Wunderground v.1.15,2013-06-11 09:03:00,
2013-06-11 04:08:00,65.4,64.2,29.86,SW,231,0.0,0.0,96,0.00,,,0.00,Wunderground v.1.15,2013-06-11 09:08:00,
2013-06-11 04:13:00,65.3,64.1,29.86,SW,230,0.0,0.0,96,0.00,,,0.00,Wunderground v.1.15,2013-06-11 09:13:00,
2013-06-11 04:18:00,65.0,63.8,29.86,SW,231,0.0,0.0,96,0.00,,,0.00,Wunderground v.1.15,2013-06-11 09:18:00,
2013-06-11 04:23:00,64.9,63.7,29.87,SW,231,0.0,0.0,96,0.00,,,0.00,Wunderground v.1.15,2013-06-11 09:23:00,
2013-06-11 04:28:00,65.0,64.1,29.87,SW,231,0.0,0.0,97,0.00,,,0.00,Wunderground v.1.15,2013-06-11 09:28:00,
2013-06-11 04:33:00,65.0,64.1,29.87,SW,231,0.0,0.0,97,0.00,,,0.00,Wunderground v.1.15,2013-06-11 09:33:00,
2013-06-11 04:38:00,64.9,63.7,29.87,SW,231,0.0,0.0,96,0.00,,,0.00,Wunderground v.1.15,2013-06-11 09:38:00,
2013-06-11 04:43:00,64.7,63.5,29.87,SW,231,0.0,0.0,96,0.00,,,0.00,Wunderground v.1.15,2013-06-11 09:43:00,
2013-06-11 04:48:00,64.6,63.4,29.87,SW,231,0.0,0.0,96,0.00,,,0.00,Wunderground v.1.15,2013-06-11 09:48:00,
2013-06-11 04:53:00,64.5,63.3,29.88,SW,231,0.0,0.0,96,0.00,,,0.00,Wunderground v.1.15,2013-06-11 09:53:00,
2013-06-11 04:58:00,64.3,63.1,29.88,SW,231,0.0,0.0,96,0.00,,,0.00,Wunderground v.1.15,2013-06-11 09:58:00,
2013-06-11 05:03:00,64.7,63.8,29.88,SW,231,0.0,0.0,97,0.00,,,0.00,Wunderground v.1.15,2013-06-11 10:03:00,
2013-06-11 05:08:00,64.6,63.7,29.88,SW,231,0.0,0.0,97,0.00,,,0.00,Wunderground v.1.15,2013-06-11 10:08:00,
2013-06-11 05:13:00,64.6,63.7,29.88,SW,231,0.0,0.0,97,0.00,,,0.00,Wunderground v.1.15,2013-06-11 10:13:00,
2013-06-11 05:18:00,64.7,63.8,29.88,SW,231,0.0,0.0,97,0.00,,,0.00,Wunderground v.1.15,2013-06-11 10:18:00,
2013-06-11 05:23:00,64.7,63.8,29.89,SW,231,0.0,0.0,97,0.00,,,0.00,Wunderground v.1.15,2013-06-11 10:23:00,
2013-06-11 05:28:00,64.8,63.9,29.88,SW,231,0.0,0.0,97,0.00,,,0.00,Wunderground v.1.15,2013-06-11 10:28:00,
2013-06-11 05:33:00,64.8,63.9,29.88,SW,231,0.0,0.0,97,0.00,,,0.00,Wunderground v.1.15,2013-06-11 10:33:00,
2013-06-11 05:38:00,64.7,63.8,29.88,SW,230,0.0,0.0,97,0.00,,,0.00,Wunderground v.1.15,2013-06-11 10:38:00,
2013-06-11 05:43:00,64.7,63.8,29.88,SW,231,0.0,0.0,97,0.00,,,0.00,Wunderground v.1.15,2013-06-11 10:43:00,
2013-06-11 05:48:00,64.6,63.7,29.88,SW,231,0.0,0.0,97,0.00,,,0.00,Wunderground v.1.15,2013-06-11 10:48:00,
2013-06-11 05:53:00,64.6,63.7,29.89,SW,230,0.0,0.0,97,0.00,,,0.00,Wunderground v.1.15,2013-06-11 10:53:00,
2013-06-11 05:58:00,64.6,63.7,29.89,SW,231,0.0,0.0,97,0.00,,,0.00,Wunderground v.1.15,2013-06-11 10:58:00,
2013-06-11 06:03:00,64.6,63.7,29.89,SW,231,0.0,0.0,97,0.00,,,0.00,Wunderground v.1.15,2013-06-11 11:03:00,
2013-06-11 06:08:00,64.5,63.6,29.89,SW,231,0.0,0.0,97,0.00,,,0.00,Wunderground v.1.15,2013-06-11 11:08:00,
2013-06-11 06:13:00,64.5,63.6,29.89,SW,231,0.0,0.0,97,0.00,,,0.00,Wunderground v.1.15,2013-06-11 11:13:00,
2013-06-11 06:18:00,64.7,63.8,29.90,SW,231,0.0,0.0,97,0.00,,,0.00,Wunderground v.1.15,2013-06-11 11:18:00,
2013-06-11 06:23:00,64.9,64.0,29.90,SW,231,0.0,0.0,97,0.00,,,0.00,Wunderground v.1.15,2013-06-11 11:23:00,
2013-06-11 06:28:00,64.9,64.0,29.90,SW,231,0.0,0.0,97,0.00,,,0.00,Wunderground v.1.15,2013-06-11 11:28:00,
2013-06-11 06:33:00,65.0,64.1,29.90,SW,231,0.0,0.0,97,0.00,,,0.00,Wunderground v.1.15,2013-06-11 11:33:00,
2013-06-11 06:38:00,65.2,64.3,29.90,SW,231,0.0,0.0,97,0.00,,,0.00,Wunderground v.1.15,2013-06-11 11:38:00,
2013-06-11 06:43:00,65.4,64.5,29.90,SW,231,0.0,0.0,97,0.00,,,0.00,Wunderground v.1.15,2013-06-11 11:43:00,
2013-06-11 06:48:00,65.7,64.8,29.91,SW,231,0.0,0.0,97,0.00,,,0.00,Wunderground v.1.15,2013-06-11 11:48:00,
2013-06-11 06:53:00,66.2,65.3,29.90,WSW,250,1.0,1.0,97,0.00,,,0.00,Wunderground v.1.15,2013-06-11 11:53:00,
2013-06-11 06:58:00,67.1,66.5,29.91,WSW,240,1.0,1.0,98,0.00,,,0.00,Wunderground v.1.15,2013-06-11 11:58:00,
2013-06-11 07:03:00,68.3,67.7,29.91,WSW,242,0.0,1.0,98,0.00,,,0.00,Wunderground v.1.15,2013-06-11 12:03:00,
2013-06-11 07:08:00,69.4,67.9,29.91,WSW,243,0.0,2.0,95,0.00,,,0.00,Wunderground v.1.15,2013-06-11 12:08:00,
2013-06-11 07:13:00,70.4,68.3,29.91,WSW,256,0.0,1.0,93,0.00,,,0.00,Wunderground v.1.15,2013-06-11 12:13:00,
2013-06-11 07:18:00,71.2,68.4,29.91,SW,236,1.0,1.0,91,0.00,,,0.00,Wunderground v.1.15,2013-06-11 12:18:00,
2013-06-11 07:23:00,72.1,68.7,29.91,WSW,253,1.0,3.0,89,0.00,,,0.00,Wunderground v.1.15,2013-06-11 12:23:00,
2013-06-11 07:28:00,72.8,68.7,29.91,WSW,256,0.0,3.0,87,0.00,,,0.00,Wunderground v.1.15,2013-06-11 12:28:00,
2013-06-11 07:33:00,73.5,69.1,29.91,West,281,1.0,3.0,86,0.00,,,0.00,Wunderground v.1.15,2013-06-11 12:33:00,
2013-06-11 07:38:00,74.2,69.4,29.92,West,266,3.0,6.0,85,0.00,,,0.00,Wunderground v.1.15,2013-06-11 12:38:00,
2013-06-11 07:43:00,74.8,69.3,29.92,West,260,2.0,3.0,83,0.00,,,0.00,Wunderground v.1.15,2013-06-11 12:43:00,
2013-06-11 07:48:00,75.3,69.4,29.92,West,265,1.0,4.0,82,0.00,,,0.00,Wunderground v.1.15,2013-06-11 12:48:00,
2013-06-11 07:53:00,75.7,69.5,29.92,West,274,2.0,4.0,81,0.00,,,0.00,Wunderground v.1.15,2013-06-11 12:53:00,
2013-06-11 07:58:00,76.2,69.2,29.92,West,263,3.0,4.0,79,0.00,,,0.00,Wunderground v.1.15,2013-06-11 12:58:00,
2013-06-11 08:03:00,76.7,69.7,29.92,West,274,3.0,5.0,79,0.00,,,0.00,Wunderground v.1.15,2013-06-11 13:03:00,
2013-06-11 08:08:00,77.1,69.7,29.92,WSW,249,4.0,6.0,78,0.00,,,0.00,Wunderground v.1.15,2013-06-11 13:08:00,
2013-06-11 08:13:00,77.5,69.3,29.92,West,276,3.0,5.0,76,0.00,,,0.00,Wunderground v.1.15,2013-06-11 13:13:00,
2013-06-11 08:18:00,78.1,69.5,29.93,West,267,2.0,6.0,75,0.00,,,0.00,Wunderground v.1.15,2013-06-11 13:18:00,
2013-06-11 08:23:00,78.7,69.7,29.93,WNW,287,1.0,5.0,74,0.00,,,0.00,Wunderground v.1.15,2013-06-11 13:23:00,
2013-06-11 08:28:00,79.2,70.2,29.93,WSW,245,3.0,5.0,74,0.00,,,0.00,Wunderground v.1.15,2013-06-11 13:28:00,
2013-06-11 08:33:00,79.6,69.8,29.93,SW,220,2.0,5.0,72,0.00,,,0.00,Wunderground v.1.15,2013-06-11 13:33:00,
2013-06-11 08:38:00,80.1,69.8,29.93,West,265,3.0,6.0,71,0.00,,,0.00,Wunderground v.1.15,2013-06-11 13:38:00,
2013-06-11 08:43:00,80.5,70.2,29.93,SW,236,2.0,5.0,71,0.00,,,0.00,Wunderground v.1.15,2013-06-11 13:43:00,
2013-06-11 08:48:00,80.8,70.5,29.93,West,266,4.0,6.0,71,0.00,,,0.00,Wunderground v.1.15,2013-06-11 13:48:00,
2013-06-11 08:53:00,81.1,70.0,29.94,West,278,4.0,6.0,69,0.00,,,0.00,Wunderground v.1.15,2013-06-11 13:53:00,
2013-06-11 08:58:00,81.4,70.2,29.93,WSW,242,3.0,7.0,69,0.00,,,0.00,Wunderground v.1.15,2013-06-11 13:58:00,
2013-06-11 09:03:00,81.8,70.2,29.93,West,262,3.0,6.0,68,0.00,,,0.00,Wunderground v.1.15,2013-06-11 14:03:00,
2013-06-11 09:08:00,82.0,70.4,29.93,West,264,2.0,6.0,68,0.00,,,0.00,Wunderground v.1.15,2013-06-11 14:08:00,
2013-06-11 09:13:00,82.3,70.2,29.93,West,266,5.0,6.0,67,0.00,,,0.00,Wunderground v.1.15,2013-06-11 14:13:00,
2013-06-11 09:18:00,82.8,71.6,29.94,SW,225,2.0,6.0,69,0.00,,,0.00,Wunderground v.1.15,2013-06-11 14:18:00,
2013-06-11 09:23:00,83.3,70.3,29.93,WNW,283,6.0,8.0,65,0.00,,,0.00,Wunderground v.1.15,2013-06-11 14:23:00,
2013-06-11 09:28:00,83.4,70.4,29.93,WSW,249,3.0,10.0,65,0.00,,,0.00,Wunderground v.1.15,2013-06-11 14:28:00,
2013-06-11 09:33:00,83.6,70.6,29.93,West,275,2.0,6.0,65,0.00,,,0.00,Wunderground v.1.15,2013-06-11 14:33:00,
2013-06-11 09:38:00,83.8,70.8,29.93,SW,231,3.0,8.0,65,0.00,,,0.00,Wunderground v.1.15,2013-06-11 14:38:00,
2013-06-11 09:43:00,84.1,70.1,29.93,West,275,6.0,9.0,63,0.00,,,0.00,Wunderground v.1.15,2013-06-11 14:43:00,
2013-06-11 09:48:00,84.3,69.9,29.93,SW,235,5.0,9.0,62,0.00,,,0.00,Wunderground v.1.15,2013-06-11 14:48:00,
2013-06-11 09:53:00,84.6,70.1,29.93,West,274,5.0,8.0,62,0.00,,,0.00,Wunderground v.1.15,2013-06-11 14:53:00,
2013-06-11 09:58:00,84.7,69.8,29.93,West,275,4.0,11.0,61,0.00,,,0.00,Wunderground v.1.15,2013-06-11 14:58:00,
2013-06-11 10:03:00,85.0,70.5,29.93,SW,232,3.0,6.0,62,0.00,,,0.00,Wunderground v.1.15,2013-06-11 15:03:00,
2013-06-11 10:08:00,85.3,70.3,29.93,West,266,4.0,7.0,61,0.00,,,0.00,Wunderground v.1.15,2013-06-11 15:08:00,
2013-06-11 10:13:00,85.5,70.0,29.93,WSW,246,5.0,8.0,60,0.00,,,0.00,Wunderground v.1.15,2013-06-11 15:13:00,
2013-06-11 10:18:00,85.8,70.8,29.93,WNW,295,6.0,8.0,61,0.00,,,0.00,Wunderground v.1.15,2013-06-11 15:18:00,
2013-06-11 10:23:00,86.0,70.5,29.93,SW,214,4.0,7.0,60,0.00,,,0.00,Wunderground v.1.15,2013-06-11 15:23:00,
2013-06-11 10:28:00,86.3,70.8,29.93,West,260,2.0,9.0,60,0.00,,,0.00,Wunderground v.1.15,2013-06-11 15:28:00,
2013-06-11 10:33:00,86.5,70.5,29.93,WSW,257,5.0,7.0,59,0.00,,,0.00,Wunderground v.1.15,2013-06-11 15:33:00,
2013-06-11 10:38:00,86.8,70.8,29.93,WNW,284,4.0,7.0,59,0.00,,,0.00,Wunderground v.1.15,2013-06-11 15:38:00,
2013-06-11 10:43:00,87.0,70.9,29.93,West,273,4.0,7.0,59,0.00,,,0.00,Wunderground v.1.15,2013-06-11 15:43:00,
2013-06-11 10:48:00,87.3,70.7,29.93,West,259,5.0,9.0,58,0.00,,,0.00,Wunderground v.1.15,2013-06-11 15:48:00,
2013-06-11 10:53:00,87.8,71.7,29.94,WNW,298,3.0,5.0,59,0.00,,,0.00,Wunderground v.1.15,2013-06-11 15:53:00,
2013-06-11 10:58:00,88.0,70.3,29.94,WSW,242,2.0,8.0,56,0.00,,,0.00,Wunderground v.1.15,2013-06-11 15:58:00,
2013-06-11 11:03:00,88.3,70.6,29.94,West,270,4.0,7.0,56,0.00,,,0.00,Wunderground v.1.15,2013-06-11 16:03:00,
2013-06-11 11:08:00,88.3,69.5,29.94,SW,215,3.0,7.0,54,0.00,,,0.00,Wunderground v.1.15,2013-06-11 16:08:00,
2013-06-11 11:13:00,88.4,70.2,29.94,West,273,3.0,7.0,55,0.00,,,0.00,Wunderground v.1.15,2013-06-11 16:13:00,
2013-06-11 11:18:00,88.6,69.8,29.94,SSW,212,2.0,8.0,54,0.00,,,0.00,Wunderground v.1.15,2013-06-11 16:18:00,
2013-06-11 11:23:00,88.9,71.2,29.94,West,274,3.0,5.0,56,0.00,,,0.00,Wunderground v.1.15,2013-06-11 16:23:00,
2013-06-11 11:28:00,89.3,69.9,29.94,SW,214,5.0,6.0,53,0.00,,,0.00,Wunderground v.1.15,2013-06-11 16:28:00,
2013-06-11 11:33:00,89.6,70.2,29.94,WNW,298,4.0,5.0,53,0.00,,,0.00,Wunderground v.1.15,2013-06-11 16:33:00,
2013-06-11 11:38:00,89.7,70.3,29.94,WSW,238,6.0,8.0,53,0.00,,,0.00,Wunderground v.1.15,2013-06-11 16:38:00,
2013-06-11 11:43:00,90.0,70.6,29.94,SW,236,4.0,5.0,53,0.00,,,0.00,Wunderground v.1.15,2013-06-11 16:43:00,
2013-06-11 11:48:00,90.4,69.8,29.94,West,274,2.0,7.0,51,0.00,,,0.00,Wunderground v.1.15,2013-06-11 16:48:00,
2013-06-11 11:53:00,90.6,69.4,29.94,WNW,288,3.0,5.0,50,0.00,,,0.00,Wunderground v.1.15,2013-06-11 16:53:00,
2013-06-11 11:58:00,90.9,70.3,29.94,West,273,6.0,6.0,51,0.00,,,0.00,Wunderground v.1.15,2013-06-11 16:58:00,
2013-06-11 12:03:00,90.9,68.5,29.94,WSW,250,4.0,7.0,48,0.00,,,0.00,Wunderground v.1.15,2013-06-11 17:03:00,
2013-06-11 12:08:00,91.0,68.0,29.93,WSW,252,5.0,8.0,47,0.00,,,0.00,Wunderground v.1.15,2013-06-11 17:08:00,
2013-06-11 12:13:00,91.1,69.3,29.93,West,281,5.0,8.0,49,0.00,,,0.00,Wunderground v.1.15,2013-06-11 17:13:00,
2013-06-11 12:18:00,91.3,67.6,29.93,West,263,4.0,9.0,46,0.00,,,0.00,Wunderground v.1.15,2013-06-11 17:18:00,
2013-06-11 12:23:00,91.4,67.7,29.93,SW,229,2.0,7.0,46,0.00,,,0.00,Wunderground v.1.15,2013-06-11 17:23:00,